Grand Junction Regional Airport
KGJT : now visible

Airfield :











YOU CAN JOIN US ON...

 
LOGIN :

Register | Disclaimer

   EN    FR    IT 

 









Legend :    VFR   Marginal VFR   IFR   Intensive IFR   Very Intensive IFR
Visi :
Ceiling :
>= 8 km
>= 3000ft
5 to 8 km
1000 to 3000 ft
1500m to 5 km
500 to 1000 ft
800 to 1500m
200 to 500 ft
< 800m
< 200 ft
Symbols :   Thunderstorms  Fog  Heavy snow  Heavy precipitations  Wind > 20 kt






- Airport Elevation : 4858 ft
- IATA code : GJT


KGJT - Grand Junction Regional

CURRENT METAR :
  • 011753Z 28009KT 10SM CLR 19/M02 A2972 RMK AO2 SLP013 6//// T01891017 10189 20067 58020

EXPIRED METARs :
  • 011653Z 13006KT 10SM CLR 17/M04 A2974 RMK AO2 SLP025 T01721039
  • 011553Z 13010KT 10SM CLR 15/M02 A2977 RMK AO2 SLP040 T01501022 PNO $

TAF KGJT
Valid from the 01 at 18:00 until the 02 at 18:00 UTC


011727Z 0118/0218 22010KT P6SM FEW200
FM012100 25015G23KT P6SM FEW100 SCT150
FM020200 14013G23KT P6SM SCT100
FM020500 16011KT P6SM FEW100 WS020/23030KT
FM021200 13016G24KT P6SM OVC100
FM021500 25008KT P6SM -RA SCT250



MET'MAP, your aeronautical weather chart ! - Copyright ORBIFLY December 2007 - Disclaimer

ORBIFLY MET'MAP TEAM :

Programming & Development : Alexandra Zaïnal
Concept & original design : Baudouin d'Aumeries
Assistance for programming : Marc-Olivier Méhu
Technical & hardware support : Manuel Goepfert

Contact : metmap@orbifly.com




SOURCES & CREDITS :

   NOAA       Earth
Advisory